Locarno-monti, Switzerland

7:04 PM CEST on March 26, 2017 (GMT +0200)
Via Migiome | | Change Station

Elev 738 ft 46.16 °N, 8.77 °E | Updated 8 minutes ago

Clear
Clear
58.3 °F
Feels Like 58.3 °F
N
0.6
Wind Variable Wind from SSW
Gusts 2.5 mph

Today
High -- | Low -- °F
--% Chance of Precip.
Yesterday
High -- | Low -- °F
Precip. -- in
Pressure 30.01 in
Visibility 6.2 miles
Clouds Scattered Clouds 3600 ft
Scattered Clouds 8000 ft
Dew Point 48 °F
Humidity 69%
Rainfall 0.14 in
Snow Depth Not available.
7:16 AM 7:45 PM
Waning Crescent, 3% visible
METAR LSZA 261650Z 20008KT 9999 SCT036 SCT080 15/09 Q1016 NOSIG
Pressure 30.01 in
Visibility 6.2 miles
Clouds Scattered Clouds 3600 ft
Scattered Clouds 8000 ft
Dew Point 48 °F
Humidity 69%
Rainfall 0.14 in
Snow Depth Not available.
7:16 AM 7:45 PM
Waning Crescent, 3% visible
METAR LSZA 261650Z 20008KT 9999 SCT036 SCT080 15/09 Q1016 NOSIG

Get Severe Weather Alerts

Thanks for signing up!

Be on the lookout for a verification email in your inbox.

You'll start receiving the daily forecast at 8 AM.

×

10-Day Weather Forecast

×

Almanac

Astronomy

Mar. 26, 2017 Rise Set
Actual Time
Civil Twilight
Nautical Twilight
Astronomical Twilight
Moon
Length of Visible Light
Length of Day
Tomorrow will be .
, % of the Moon is Illuminated

Today's Extremes

Country Highs Country Lows

Community

WunderPhotos

Upload Photos

1,962,540 photos uploaded!

WunderBlog® & News

Nearby

Air Quality

  Air Quality AQ Index Pollutant
Not available.

Snow Depth

Station Depth Elevation

Earthquake Activity

City Distance Mag. Time & Date
Minimum magnitude displayed is 2.5.

Earthquake Activity

City Distance Mag. Time & Date
Minimum magnitude displayed is 2.5.

Coastal Water Temperatures

Place Temperature

Stations

Nearby Weather Stations

Station Location Temp. Windchill Dew Point Humidity Wind Precip. Elev Updated Type